sensor_id;sensor_type;location;lat;lon;timestamp;temperature;humidity
45983;DHT22;31711;47.158;7.346;2024-03-02T00:00:22;3.50;99.90
45983;DHT22;31711;47.158;7.346;2024-03-02T00:02:49;3.50;99.90
45983;DHT22;31711;47.158;7.346;2024-03-02T00:05:20;3.50;99.90
45983;DHT22;31711;47.158;7.346;2024-03-02T00:07:57;3.60;99.90
45983;DHT22;31711;47.158;7.346;2024-03-02T00:10:25;3.60;99.90
45983;DHT22;31711;47.158;7.346;2024-03-02T00:12:55;3.60;99.90
45983;DHT22;31711;47.158;7.346;2024-03-02T00:17:57;3.50;99.90
45983;DHT22;31711;47.158;7.346;2024-03-02T00:20:24;3.50;99.90
45983;DHT22;31711;47.158;7.346;2024-03-02T00:23:02;3.60;99.90
45983;DHT22;31711;47.158;7.346;2024-03-02T00:25:49;3.60;99.90
45983;DHT22;31711;47.158;7.346;2024-03-02T00:28:19;3.60;99.90
45983;DHT22;31711;47.158;7.346;2024-03-02T00:33:21;3.60;99.90
45983;DHT22;31711;47.158;7.346;2024-03-02T00:35:48;3.50;99.90
45983;DHT22;31711;47.158;7.346;2024-03-02T00:38:15;3.50;99.90
45983;DHT22;31711;47.158;7.346;2024-03-02T00:40:44;3.50;99.90
45983;DHT22;31711;47.158;7.346;2024-03-02T00:43:41;3.50;99.90
45983;DHT22;31711;47.158;7.346;2024-03-02T00:46:09;3.50;99.90
45983;DHT22;31711;47.158;7.346;2024-03-02T00:48:35;3.40;99.90
45983;DHT22;31711;47.158;7.346;2024-03-02T00:51:02;3.30;99.90
45983;DHT22;31711;47.158;7.346;2024-03-02T00:53:31;3.30;99.90
45983;DHT22;31711;47.158;7.346;2024-03-02T00:56:01;3.20;99.90
45983;DHT22;31711;47.158;7.346;2024-03-02T00:58:27;3.20;99.90
45983;DHT22;31711;47.158;7.346;2024-03-02T01:00:53;3.10;99.90
45983;DHT22;31711;47.158;7.346;2024-03-02T01:03:19;3.10;99.90
45983;DHT22;31711;47.158;7.346;2024-03-02T01:05:45;3.00;99.90
45983;DHT22;31711;47.158;7.346;2024-03-02T01:08:11;3.00;99.90
45983;DHT22;31711;47.158;7.346;2024-03-02T01:10:37;3.00;99.90
45983;DHT22;31711;47.158;7.346;2024-03-02T01:13:03;2.90;99.90
45983;DHT22;31711;47.158;7.346;2024-03-02T01:15:33;3.00;99.90
45983;DHT22;31711;47.158;7.346;2024-03-02T01:17:59;2.90;99.90
45983;DHT22;31711;47.158;7.346;2024-03-02T01:20:24;2.90;99.90
45983;DHT22;31711;47.158;7.346;2024-03-02T01:22:50;2.80;99.90
45983;DHT22;31711;47.158;7.346;2024-03-02T01:25:16;2.80;99.90
45983;DHT22;31711;47.158;7.346;2024-03-02T01:27:43;2.80;99.90
45983;DHT22;31711;47.158;7.346;2024-03-02T01:30:09;2.70;99.90
45983;DHT22;31711;47.158;7.346;2024-03-02T01:32:38;2.70;99.90
45983;DHT22;31711;47.158;7.346;2024-03-02T01:35:05;2.60;99.90
45983;DHT22;31711;47.158;7.346;2024-03-02T01:37:32;2.60;99.90
45983;DHT22;31711;47.158;7.346;2024-03-02T01:39:58;2.60;99.90
45983;DHT22;31711;47.158;7.346;2024-03-02T01:42:24;2.60;99.90
45983;DHT22;31711;47.158;7.346;2024-03-02T01:44:51;2.60;99.90
45983;DHT22;31711;47.158;7.346;2024-03-02T01:47:17;2.50;99.90
45983;DHT22;31711;47.158;7.346;2024-03-02T01:49:43;2.50;99.90
45983;DHT22;31711;47.158;7.346;2024-03-02T01:52:09;2.40;99.90
45983;DHT22;31711;47.158;7.346;2024-03-02T01:54:36;2.30;99.90
45983;DHT22;31711;47.158;7.346;2024-03-02T01:57:02;2.30;99.90
45983;DHT22;31711;47.158;7.346;2024-03-02T01:59:28;2.30;99.90
45983;DHT22;31711;47.158;7.346;2024-03-02T02:01:55;2.30;99.90
45983;DHT22;31711;47.158;7.346;2024-03-02T02:04:20;2.30;99.90
45983;DHT22;31711;47.158;7.346;2024-03-02T02:06:53;2.20;99.90
45983;DHT22;31711;47.158;7.346;2024-03-02T02:09:19;2.20;99.90
45983;DHT22;31711;47.158;7.346;2024-03-02T02:11:45;2.30;99.90
45983;DHT22;31711;47.158;7.346;2024-03-02T02:14:11;2.30;99.90
45983;DHT22;31711;47.158;7.346;2024-03-02T02:16:37;2.20;99.90
45983;DHT22;31711;47.158;7.346;2024-03-02T02:19:03;2.20;99.90
45983;DHT22;31711;47.158;7.346;2024-03-02T02:21:29;2.20;99.90
45983;DHT22;31711;47.158;7.346;2024-03-02T02:23:55;2.20;99.90
45983;DHT22;31711;47.158;7.346;2024-03-02T02:26:21;2.20;99.90
45983;DHT22;31711;47.158;7.346;2024-03-02T02:28:47;2.20;99.90
45983;DHT22;31711;47.158;7.346;2024-03-02T02:31:14;2.10;99.90
45983;DHT22;31711;47.158;7.346;2024-03-02T02:33:40;2.00;99.90
45983;DHT22;31711;47.158;7.346;2024-03-02T02:36:06;2.00;99.90
45983;DHT22;31711;47.158;7.346;2024-03-02T02:38:34;1.90;99.90
45983;DHT22;31711;47.158;7.346;2024-03-02T02:41:01;1.90;99.90
45983;DHT22;31711;47.158;7.346;2024-03-02T02:43:27;1.90;99.90
45983;DHT22;31711;47.158;7.346;2024-03-02T02:45:53;1.90;99.90
45983;DHT22;31711;47.158;7.346;2024-03-02T02:48:18;1.80;99.90
45983;DHT22;31711;47.158;7.346;2024-03-02T02:50:45;1.70;99.90
45983;DHT22;31711;47.158;7.346;2024-03-02T02:53:10;1.70;99.90
45983;DHT22;31711;47.158;7.346;2024-03-02T02:55:36;1.60;99.90
45983;DHT22;31711;47.158;7.346;2024-03-02T02:58:06;1.60;99.90
45983;DHT22;31711;47.158;7.346;2024-03-02T03:00:32;1.60;99.90
45983;DHT22;31711;47.158;7.346;2024-03-02T03:02:58;1.60;99.90
45983;DHT22;31711;47.158;7.346;2024-03-02T03:05:24;1.60;99.90
45983;DHT22;31711;47.158;7.346;2024-03-02T03:07:50;1.50;99.90
45983;DHT22;31711;47.158;7.346;2024-03-02T03:10:17;1.50;99.90
45983;DHT22;31711;47.158;7.346;2024-03-02T03:12:43;1.50;99.90
45983;DHT22;31711;47.158;7.346;2024-03-02T03:15:10;1.50;99.90
45983;DHT22;31711;47.158;7.346;2024-03-02T03:17:37;1.50;99.90
45983;DHT22;31711;47.158;7.346;2024-03-02T03:20:03;1.50;99.90
45983;DHT22;31711;47.158;7.346;2024-03-02T03:22:30;1.50;99.90
45983;DHT22;31711;47.158;7.346;2024-03-02T03:25:00;1.50;99.90
45983;DHT22;31711;47.158;7.346;2024-03-02T03:27:27;1.50;99.90
45983;DHT22;31711;47.158;7.346;2024-03-02T03:29:53;1.50;99.90
45983;DHT22;31711;47.158;7.346;2024-03-02T03:32:20;1.50;99.90
45983;DHT22;31711;47.158;7.346;2024-03-02T03:34:46;1.50;99.90
45983;DHT22;31711;47.158;7.346;2024-03-02T03:37:13;1.50;99.90
45983;DHT22;31711;47.158;7.346;2024-03-02T03:39:39;1.40;99.90
45983;DHT22;31711;47.158;7.346;2024-03-02T03:42:06;1.30;99.90
45983;DHT22;31711;47.158;7.346;2024-03-02T03:44:32;1.40;99.90
45983;DHT22;31711;47.158;7.346;2024-03-02T03:46:58;1.30;99.90
45983;DHT22;31711;47.158;7.346;2024-03-02T03:49:24;1.30;99.90
45983;DHT22;31711;47.158;7.346;2024-03-02T03:51:50;1.20;99.90
45983;DHT22;31711;47.158;7.346;2024-03-02T03:54:16;1.20;99.90
45983;DHT22;31711;47.158;7.346;2024-03-02T03:56:42;1.20;99.90
45983;DHT22;31711;47.158;7.346;2024-03-02T03:59:08;1.20;99.90
45983;DHT22;31711;47.158;7.346;2024-03-02T04:01:34;1.30;99.90
45983;DHT22;31711;47.158;7.346;2024-03-02T04:04:00;1.30;99.90
45983;DHT22;31711;47.158;7.346;2024-03-02T04:06:27;1.30;99.90
45983;DHT22;31711;47.158;7.346;2024-03-02T04:08:53;1.30;99.90
45983;DHT22;31711;47.158;7.346;2024-03-02T04:11:19;1.30;99.90
45983;DHT22;31711;47.158;7.346;2024-03-02T04:13:45;1.20;99.90
45983;DHT22;31711;47.158;7.346;2024-03-02T04:16:11;1.30;99.90
45983;DHT22;31711;47.158;7.346;2024-03-02T04:18:38;1.20;99.90
45983;DHT22;31711;47.158;7.346;2024-03-02T04:21:05;1.20;99.90
45983;DHT22;31711;47.158;7.346;2024-03-02T04:23:31;1.20;99.90
45983;DHT22;31711;47.158;7.346;2024-03-02T04:25:57;1.20;99.90
45983;DHT22;31711;47.158;7.346;2024-03-02T04:28:23;1.20;99.90
45983;DHT22;31711;47.158;7.346;2024-03-02T04:30:49;1.20;99.90
45983;DHT22;31711;47.158;7.346;2024-03-02T04:33:15;1.30;99.90
45983;DHT22;31711;47.158;7.346;2024-03-02T04:35:41;1.40;99.90
45983;DHT22;31711;47.158;7.346;2024-03-02T04:38:07;1.50;99.90
45983;DHT22;31711;47.158;7.346;2024-03-02T04:40:33;1.50;99.90
45983;DHT22;31711;47.158;7.346;2024-03-02T04:42:59;1.50;99.90
45983;DHT22;31711;47.158;7.346;2024-03-02T04:45:25;1.60;99.90
45983;DHT22;31711;47.158;7.346;2024-03-02T04:47:51;1.60;99.90
45983;DHT22;31711;47.158;7.346;2024-03-02T04:50:17;1.70;99.90
45983;DHT22;31711;47.158;7.346;2024-03-02T04:52:42;1.70;99.90
45983;DHT22;31711;47.158;7.346;2024-03-02T04:55:08;1.70;99.90
45983;DHT22;31711;47.158;7.346;2024-03-02T04:57:53;1.60;99.90
45983;DHT22;31711;47.158;7.346;2024-03-02T05:00:20;1.70;99.90
45983;DHT22;31711;47.158;7.346;2024-03-02T05:02:47;1.80;99.90
45983;DHT22;31711;47.158;7.346;2024-03-02T05:05:13;1.80;99.90
45983;DHT22;31711;47.158;7.346;2024-03-02T05:07:41;1.90;99.90
45983;DHT22;31711;47.158;7.346;2024-03-02T05:10:08;1.90;99.90
45983;DHT22;31711;47.158;7.346;2024-03-02T05:12:34;2.00;99.90
45983;DHT22;31711;47.158;7.346;2024-03-02T05:15:10;1.90;99.90
45983;DHT22;31711;47.158;7.346;2024-03-02T05:17:37;1.80;99.90
45983;DHT22;31711;47.158;7.346;2024-03-02T05:20:05;1.70;99.90
45983;DHT22;31711;47.158;7.346;2024-03-02T05:22:31;1.80;99.90
45983;DHT22;31711;47.158;7.346;2024-03-02T05:24:57;1.70;99.90
45983;DHT22;31711;47.158;7.346;2024-03-02T05:27:24;1.30;99.90
45983;DHT22;31711;47.158;7.346;2024-03-02T05:29:50;1.40;99.90
45983;DHT22;31711;47.158;7.346;2024-03-02T05:32:16;1.50;99.90
45983;DHT22;31711;47.158;7.346;2024-03-02T05:34:42;1.50;99.90
45983;DHT22;31711;47.158;7.346;2024-03-02T05:37:08;1.60;99.90
45983;DHT22;31711;47.158;7.346;2024-03-02T05:39:34;1.50;99.90
45983;DHT22;31711;47.158;7.346;2024-03-02T05:42:00;1.50;99.90
45983;DHT22;31711;47.158;7.346;2024-03-02T05:44:26;1.40;99.90
45983;DHT22;31711;47.158;7.346;2024-03-02T05:46:52;1.30;99.90
45983;DHT22;31711;47.158;7.346;2024-03-02T05:49:18;1.40;99.90
45983;DHT22;31711;47.158;7.346;2024-03-02T05:51:45;1.30;99.90
45983;DHT22;31711;47.158;7.346;2024-03-02T05:54:11;1.40;99.90
45983;DHT22;31711;47.158;7.346;2024-03-02T05:56:37;1.30;99.90
45983;DHT22;31711;47.158;7.346;2024-03-02T05:59:03;1.40;99.90
45983;DHT22;31711;47.158;7.346;2024-03-02T06:01:43;1.40;99.90
45983;DHT22;31711;47.158;7.346;2024-03-02T06:04:09;1.20;99.90
45983;DHT22;31711;47.158;7.346;2024-03-02T06:06:36;1.10;99.90
45983;DHT22;31711;47.158;7.346;2024-03-02T06:09:03;1.20;99.90
45983;DHT22;31711;47.158;7.346;2024-03-02T06:11:39;1.20;99.90
45983;DHT22;31711;47.158;7.346;2024-03-02T06:14:08;1.20;99.90
45983;DHT22;31711;47.158;7.346;2024-03-02T06:16:35;1.10;99.90
45983;DHT22;31711;47.158;7.346;2024-03-02T06:19:01;1.20;99.90
45983;DHT22;31711;47.158;7.346;2024-03-02T06:21:27;1.20;99.90
45983;DHT22;31711;47.158;7.346;2024-03-02T06:23:54;1.20;99.90
45983;DHT22;31711;47.158;7.346;2024-03-02T06:26:20;1.20;99.90
45983;DHT22;31711;47.158;7.346;2024-03-02T06:28:46;1.20;99.90
45983;DHT22;31711;47.158;7.346;2024-03-02T06:31:12;1.30;99.90
45983;DHT22;31711;47.158;7.346;2024-03-02T06:33:38;1.30;99.90
45983;DHT22;31711;47.158;7.346;2024-03-02T06:36:06;1.30;99.90
45983;DHT22;31711;47.158;7.346;2024-03-02T06:38:34;1.40;99.90
45983;DHT22;31711;47.158;7.346;2024-03-02T06:41:00;1.50;99.90
45983;DHT22;31711;47.158;7.346;2024-03-02T06:43:26;1.50;99.90
45983;DHT22;31711;47.158;7.346;2024-03-02T06:45:52;1.30;99.90
45983;DHT22;31711;47.158;7.346;2024-03-02T06:48:18;1.40;99.90
45983;DHT22;31711;47.158;7.346;2024-03-02T06:50:49;1.40;99.90
45983;DHT22;31711;47.158;7.346;2024-03-02T06:53:16;1.40;99.90
45983;DHT22;31711;47.158;7.346;2024-03-02T06:55:46;1.30;99.90
45983;DHT22;31711;47.158;7.346;2024-03-02T06:58:15;1.40;99.90
45983;DHT22;31711;47.158;7.346;2024-03-02T07:00:42;1.40;99.90
45983;DHT22;31711;47.158;7.346;2024-03-02T07:03:08;1.50;99.90
45983;DHT22;31711;47.158;7.346;2024-03-02T07:05:34;1.70;99.90
45983;DHT22;31711;47.158;7.346;2024-03-02T07:08:00;1.80;99.90
45983;DHT22;31711;47.158;7.346;2024-03-02T07:10:27;1.90;99.90
45983;DHT22;31711;47.158;7.346;2024-03-02T07:12:53;1.90;99.90
45983;DHT22;31711;47.158;7.346;2024-03-02T07:15:19;1.90;99.90
45983;DHT22;31711;47.158;7.346;2024-03-02T07:17:54;2.10;99.90
45983;DHT22;31711;47.158;7.346;2024-03-02T07:20:20;2.10;99.90
45983;DHT22;31711;47.158;7.346;2024-03-02T07:22:46;2.20;99.90
45983;DHT22;31711;47.158;7.346;2024-03-02T07:25:12;2.30;99.90
45983;DHT22;31711;47.158;7.346;2024-03-02T07:27:39;2.30;99.90
45983;DHT22;31711;47.158;7.346;2024-03-02T07:30:06;2.30;99.90
45983;DHT22;31711;47.158;7.346;2024-03-02T07:32:32;2.30;99.90
45983;DHT22;31711;47.158;7.346;2024-03-02T07:34:58;2.30;99.90
45983;DHT22;31711;47.158;7.346;2024-03-02T07:37:24;2.20;99.90
45983;DHT22;31711;47.158;7.346;2024-03-02T07:39:50;2.40;99.90
45983;DHT22;31711;47.158;7.346;2024-03-02T07:42:17;2.50;99.90
45983;DHT22;31711;47.158;7.346;2024-03-02T07:44:46;2.70;99.90
45983;DHT22;31711;47.158;7.346;2024-03-02T07:47:12;3.00;99.90
45983;DHT22;31711;47.158;7.346;2024-03-02T07:49:38;3.00;99.90
45983;DHT22;31711;47.158;7.346;2024-03-02T07:52:04;2.90;99.90
45983;DHT22;31711;47.158;7.346;2024-03-02T07:54:30;3.10;99.90
45983;DHT22;31711;47.158;7.346;2024-03-02T07:56:56;3.10;99.90
45983;DHT22;31711;47.158;7.346;2024-03-02T07:59:22;3.00;99.90
45983;DHT22;31711;47.158;7.346;2024-03-02T08:01:49;3.00;99.90
45983;DHT22;31711;47.158;7.346;2024-03-02T08:04:15;3.20;99.90
45983;DHT22;31711;47.158;7.346;2024-03-02T08:06:41;3.40;99.90
45983;DHT22;31711;47.158;7.346;2024-03-02T08:09:07;3.50;99.90
45983;DHT22;31711;47.158;7.346;2024-03-02T08:11:36;3.50;99.90
45983;DHT22;31711;47.158;7.346;2024-03-02T08:14:03;3.50;99.90
45983;DHT22;31711;47.158;7.346;2024-03-02T08:16:29;3.60;99.90
45983;DHT22;31711;47.158;7.346;2024-03-02T08:18:55;3.80;99.90
45983;DHT22;31711;47.158;7.346;2024-03-02T08:21:24;4.10;99.90
45983;DHT22;31711;47.158;7.346;2024-03-02T08:23:50;4.40;99.90
45983;DHT22;31711;47.158;7.346;2024-03-02T08:26:16;4.50;99.90
45983;DHT22;31711;47.158;7.346;2024-03-02T08:28:42;4.60;99.90
45983;DHT22;31711;47.158;7.346;2024-03-02T08:31:09;4.80;99.90
45983;DHT22;31711;47.158;7.346;2024-03-02T08:33:35;4.80;99.90
45983;DHT22;31711;47.158;7.346;2024-03-02T08:36:01;5.00;99.90
45983;DHT22;31711;47.158;7.346;2024-03-02T08:38:28;5.10;99.90
45983;DHT22;31711;47.158;7.346;2024-03-02T08:40:54;5.10;99.90
45983;DHT22;31711;47.158;7.346;2024-03-02T08:43:21;5.20;99.90
45983;DHT22;31711;47.158;7.346;2024-03-02T08:45:48;5.10;99.90
45983;DHT22;31711;47.158;7.346;2024-03-02T08:48:15;5.10;99.90
45983;DHT22;31711;47.158;7.346;2024-03-02T08:50:41;5.20;99.90
45983;DHT22;31711;47.158;7.346;2024-03-02T08:53:07;5.00;99.90
45983;DHT22;31711;47.158;7.346;2024-03-02T08:55:33;5.30;99.90
45983;DHT22;31711;47.158;7.346;2024-03-02T08:57:58;5.50;99.90
45983;DHT22;31711;47.158;7.346;2024-03-02T09:00:25;5.50;99.90
45983;DHT22;31711;47.158;7.346;2024-03-02T09:02:51;5.60;99.90
45983;DHT22;31711;47.158;7.346;2024-03-02T09:05:17;5.50;99.90
45983;DHT22;31711;47.158;7.346;2024-03-02T09:07:42;5.70;99.90
45983;DHT22;31711;47.158;7.346;2024-03-02T09:10:09;5.60;99.90
45983;DHT22;31711;47.158;7.346;2024-03-02T09:12:35;5.50;99.90
45983;DHT22;31711;47.158;7.346;2024-03-02T09:15:02;5.50;99.90
45983;DHT22;31711;47.158;7.346;2024-03-02T09:17:29;5.50;99.90
45983;DHT22;31711;47.158;7.346;2024-03-02T09:19:55;5.90;99.90
45983;DHT22;31711;47.158;7.346;2024-03-02T09:22:22;6.20;99.90
45983;DHT22;31711;47.158;7.346;2024-03-02T09:24:49;6.20;99.90
45983;DHT22;31711;47.158;7.346;2024-03-02T09:27:14;6.40;99.90
45983;DHT22;31711;47.158;7.346;2024-03-02T09:29:41;6.60;99.90
45983;DHT22;31711;47.158;7.346;2024-03-02T09:32:08;6.70;99.90
45983;DHT22;31711;47.158;7.346;2024-03-02T09:34:34;6.80;99.90
45983;DHT22;31711;47.158;7.346;2024-03-02T09:37:00;6.80;99.90
45983;DHT22;31711;47.158;7.346;2024-03-02T09:39:26;6.70;99.90
45983;DHT22;31711;47.158;7.346;2024-03-02T09:41:51;6.90;99.90
45983;DHT22;31711;47.158;7.346;2024-03-02T09:44:19;7.10;99.90
45983;DHT22;31711;47.158;7.346;2024-03-02T09:46:49;7.00;99.90
45983;DHT22;31711;47.158;7.346;2024-03-02T09:49:15;7.20;99.90
45983;DHT22;31711;47.158;7.346;2024-03-02T09:51:48;7.40;99.90
45983;DHT22;31711;47.158;7.346;2024-03-02T09:54:15;7.60;99.90
45983;DHT22;31711;47.158;7.346;2024-03-02T09:56:41;7.70;99.90
45983;DHT22;31711;47.158;7.346;2024-03-02T09:59:08;7.70;99.90
45983;DHT22;31711;47.158;7.346;2024-03-02T10:01:34;7.90;99.90
45983;DHT22;31711;47.158;7.346;2024-03-02T10:04:00;8.10;99.90
45983;DHT22;31711;47.158;7.346;2024-03-02T10:06:27;8.40;99.90
45983;DHT22;31711;47.158;7.346;2024-03-02T10:08:54;8.70;99.90
45983;DHT22;31711;47.158;7.346;2024-03-02T10:11:31;8.80;99.90
45983;DHT22;31711;47.158;7.346;2024-03-02T10:14:12;9.10;99.90
45983;DHT22;31711;47.158;7.346;2024-03-02T10:16:40;9.30;99.90
45983;DHT22;31711;47.158;7.346;2024-03-02T10:21:49;9.90;99.90
45983;DHT22;31711;47.158;7.346;2024-03-02T10:24:19;9.90;99.90
45983;DHT22;31711;47.158;7.346;2024-03-02T10:26:46;10.00;99.90
45983;DHT22;31711;47.158;7.346;2024-03-02T10:29:12;10.20;99.90
45983;DHT22;31711;47.158;7.346;2024-03-02T10:31:39;10.40;99.90
45983;DHT22;31711;47.158;7.346;2024-03-02T10:34:07;10.50;99.90
45983;DHT22;31711;47.158;7.346;2024-03-02T10:36:34;10.60;99.90
45983;DHT22;31711;47.158;7.346;2024-03-02T10:39:03;10.70;99.90
45983;DHT22;31711;47.158;7.346;2024-03-02T10:41:32;10.50;99.90
45983;DHT22;31711;47.158;7.346;2024-03-02T10:43:59;10.70;99.90
45983;DHT22;31711;47.158;7.346;2024-03-02T10:46:29;11.00;99.90
45983;DHT22;31711;47.158;7.346;2024-03-02T10:48:59;10.90;99.90
45983;DHT22;31711;47.158;7.346;2024-03-02T10:51:27;11.20;99.90
45983;DHT22;31711;47.158;7.346;2024-03-02T10:53:54;11.10;99.90
45983;DHT22;31711;47.158;7.346;2024-03-02T10:56:40;11.30;99.90
45983;DHT22;31711;47.158;7.346;2024-03-02T10:59:35;11.60;99.90
45983;DHT22;31711;47.158;7.346;2024-03-02T11:02:03;11.70;99.90
45983;DHT22;31711;47.158;7.346;2024-03-02T11:04:30;11.50;99.90
45983;DHT22;31711;47.158;7.346;2024-03-02T11:09:30;11.80;99.90
45983;DHT22;31711;47.158;7.346;2024-03-02T11:14:32;12.20;99.90
45983;DHT22;31711;47.158;7.346;2024-03-02T11:17:00;12.10;99.90
45983;DHT22;31711;47.158;7.346;2024-03-02T11:19:28;12.40;99.90
45983;DHT22;31711;47.158;7.346;2024-03-02T11:21:54;12.60;99.90
45983;DHT22;31711;47.158;7.346;2024-03-02T11:26:52;12.70;99.90
45983;DHT22;31711;47.158;7.346;2024-03-02T11:32:03;13.00;99.90
45983;DHT22;31711;47.158;7.346;2024-03-02T11:34:30;13.00;99.90
45983;DHT22;31711;47.158;7.346;2024-03-02T11:36:58;12.90;99.90
45983;DHT22;31711;47.158;7.346;2024-03-02T11:39:29;12.90;99.90
45983;DHT22;31711;47.158;7.346;2024-03-02T11:41:56;12.90;99.90
45983;DHT22;31711;47.158;7.346;2024-03-02T11:44:25;12.80;99.90
45983;DHT22;31711;47.158;7.346;2024-03-02T11:47:08;12.70;99.90
45983;DHT22;31711;47.158;7.346;2024-03-02T11:49:51;12.90;99.90
45983;DHT22;31711;47.158;7.346;2024-03-02T11:52:20;13.10;99.90
45983;DHT22;31711;47.158;7.346;2024-03-02T11:54:48;13.10;99.90
45983;DHT22;31711;47.158;7.346;2024-03-02T11:57:15;13.20;99.90
45983;DHT22;31711;47.158;7.346;2024-03-02T11:59:42;13.30;99.90
45983;DHT22;31711;47.158;7.346;2024-03-02T12:02:20;13.20;99.90
45983;DHT22;31711;47.158;7.346;2024-03-02T12:04:48;13.40;99.90
45983;DHT22;31711;47.158;7.346;2024-03-02T12:07:21;13.40;99.90
45983;DHT22;31711;47.158;7.346;2024-03-02T12:10:09;13.40;99.90
45983;DHT22;31711;47.158;7.346;2024-03-02T12:12:34;13.50;99.90
45983;DHT22;31711;47.158;7.346;2024-03-02T12:15:10;13.40;99.90
45983;DHT22;31711;47.158;7.346;2024-03-02T12:17:36;13.40;99.90
45983;DHT22;31711;47.158;7.346;2024-03-02T12:20:05;13.50;99.90
45983;DHT22;31711;47.158;7.346;2024-03-02T12:22:32;13.50;99.90
45983;DHT22;31711;47.158;7.346;2024-03-02T12:24:58;13.70;99.90
45983;DHT22;31711;47.158;7.346;2024-03-02T12:27:24;13.60;99.90
45983;DHT22;31711;47.158;7.346;2024-03-02T12:29:50;13.80;99.90
45983;DHT22;31711;47.158;7.346;2024-03-02T12:32:16;14.00;99.90
45983;DHT22;31711;47.158;7.346;2024-03-02T12:34:46;13.90;99.90
45983;DHT22;31711;47.158;7.346;2024-03-02T12:37:12;13.80;99.90
45983;DHT22;31711;47.158;7.346;2024-03-02T12:39:39;13.70;99.90
45983;DHT22;31711;47.158;7.346;2024-03-02T12:42:05;13.80;99.90
45983;DHT22;31711;47.158;7.346;2024-03-02T12:44:31;13.80;99.90
45983;DHT22;31711;47.158;7.346;2024-03-02T12:46:57;13.80;99.90
45983;DHT22;31711;47.158;7.346;2024-03-02T12:49:23;13.60;99.90
45983;DHT22;31711;47.158;7.346;2024-03-02T12:51:49;13.50;99.90
45983;DHT22;31711;47.158;7.346;2024-03-02T12:54:22;13.80;99.90
45983;DHT22;31711;47.158;7.346;2024-03-02T12:56:48;13.90;99.90
45983;DHT22;31711;47.158;7.346;2024-03-02T12:59:23;13.60;99.90
45983;DHT22;31711;47.158;7.346;2024-03-02T13:01:53;13.50;99.90
45983;DHT22;31711;47.158;7.346;2024-03-02T13:06:50;13.20;99.90
45983;DHT22;31711;47.158;7.346;2024-03-02T13:09:17;13.20;99.90
45983;DHT22;31711;47.158;7.346;2024-03-02T13:11:43;13.30;99.90
45983;DHT22;31711;47.158;7.346;2024-03-02T13:14:11;13.20;99.90
45983;DHT22;31711;47.158;7.346;2024-03-02T13:16:40;13.10;99.90
45983;DHT22;31711;47.158;7.346;2024-03-02T13:19:13;13.00;99.90
45983;DHT22;31711;47.158;7.346;2024-03-02T13:21:39;13.10;99.90
45983;DHT22;31711;47.158;7.346;2024-03-02T13:24:05;13.00;99.90
45983;DHT22;31711;47.158;7.346;2024-03-02T13:26:32;12.90;99.90
45983;DHT22;31711;47.158;7.346;2024-03-02T13:28:58;12.90;99.90
45983;DHT22;31711;47.158;7.346;2024-03-02T13:31:24;12.90;99.90
45983;DHT22;31711;47.158;7.346;2024-03-02T13:33:50;12.90;99.90
45983;DHT22;31711;47.158;7.346;2024-03-02T13:36:16;12.80;99.90
45983;DHT22;31711;47.158;7.346;2024-03-02T13:38:42;12.80;99.90
45983;DHT22;31711;47.158;7.346;2024-03-02T13:41:08;12.80;99.90
45983;DHT22;31711;47.158;7.346;2024-03-02T13:43:34;12.50;99.90
45983;DHT22;31711;47.158;7.346;2024-03-02T13:46:03;12.60;99.90
45983;DHT22;31711;47.158;7.346;2024-03-02T13:48:29;12.30;99.90
45983;DHT22;31711;47.158;7.346;2024-03-02T13:50:56;12.20;99.90
45983;DHT22;31711;47.158;7.346;2024-03-02T13:53:22;12.20;99.90
45983;DHT22;31711;47.158;7.346;2024-03-02T13:55:49;12.20;99.90
45983;DHT22;31711;47.158;7.346;2024-03-02T13:58:15;12.10;99.90
45983;DHT22;31711;47.158;7.346;2024-03-02T14:00:41;11.90;99.90
45983;DHT22;31711;47.158;7.346;2024-03-02T14:03:07;11.70;99.90
45983;DHT22;31711;47.158;7.346;2024-03-02T14:05:33;11.70;99.90
45983;DHT22;31711;47.158;7.346;2024-03-02T14:07:59;11.80;99.90
45983;DHT22;31711;47.158;7.346;2024-03-02T14:10:28;11.80;99.90
45983;DHT22;31711;47.158;7.346;2024-03-02T14:12:54;11.80;99.90
45983;DHT22;31711;47.158;7.346;2024-03-02T14:15:23;11.90;99.90
45983;DHT22;31711;47.158;7.346;2024-03-02T14:17:50;12.00;99.90
45983;DHT22;31711;47.158;7.346;2024-03-02T14:20:16;12.30;99.90
45983;DHT22;31711;47.158;7.346;2024-03-02T14:22:49;12.30;99.90
45983;DHT22;31711;47.158;7.346;2024-03-02T14:25:15;12.50;99.90
45983;DHT22;31711;47.158;7.346;2024-03-02T14:27:42;12.80;99.90
45983;DHT22;31711;47.158;7.346;2024-03-02T14:30:08;12.90;99.90
45983;DHT22;31711;47.158;7.346;2024-03-02T14:32:34;13.20;99.90
45983;DHT22;31711;47.158;7.346;2024-03-02T14:35:00;13.20;99.90
45983;DHT22;31711;47.158;7.346;2024-03-02T14:37:26;13.10;99.90
45983;DHT22;31711;47.158;7.346;2024-03-02T14:39:52;13.20;99.90
45983;DHT22;31711;47.158;7.346;2024-03-02T14:42:18;13.10;99.90
45983;DHT22;31711;47.158;7.346;2024-03-02T14:44:44;13.10;99.90
45983;DHT22;31711;47.158;7.346;2024-03-02T14:47:10;12.90;99.90
45983;DHT22;31711;47.158;7.346;2024-03-02T14:49:36;12.90;99.90
45983;DHT22;31711;47.158;7.346;2024-03-02T14:52:06;12.60;99.90
45983;DHT22;31711;47.158;7.346;2024-03-02T14:54:33;12.60;99.90
45983;DHT22;31711;47.158;7.346;2024-03-02T14:57:01;12.30;99.90
45983;DHT22;31711;47.158;7.346;2024-03-02T14:59:28;12.20;99.90
45983;DHT22;31711;47.158;7.346;2024-03-02T15:01:54;12.20;99.90
45983;DHT22;31711;47.158;7.346;2024-03-02T15:04:20;12.20;99.90
45983;DHT22;31711;47.158;7.346;2024-03-02T15:06:46;12.30;99.90
45983;DHT22;31711;47.158;7.346;2024-03-02T15:09:12;12.40;99.90
45983;DHT22;31711;47.158;7.346;2024-03-02T15:11:38;12.50;99.90
45983;DHT22;31711;47.158;7.346;2024-03-02T15:14:05;12.50;99.90
45983;DHT22;31711;47.158;7.346;2024-03-02T15:16:31;12.50;99.90
45983;DHT22;31711;47.158;7.346;2024-03-02T15:18:57;12.60;99.90
45983;DHT22;31711;47.158;7.346;2024-03-02T15:21:23;12.40;99.90
45983;DHT22;31711;47.158;7.346;2024-03-02T15:23:49;12.20;99.90
45983;DHT22;31711;47.158;7.346;2024-03-02T15:26:15;12.20;99.90
45983;DHT22;31711;47.158;7.346;2024-03-02T15:28:41;12.20;99.90
45983;DHT22;31711;47.158;7.346;2024-03-02T15:31:07;12.30;99.90
45983;DHT22;31711;47.158;7.346;2024-03-02T15:33:33;12.40;99.90
45983;DHT22;31711;47.158;7.346;2024-03-02T15:35:59;12.40;99.90
45983;DHT22;31711;47.158;7.346;2024-03-02T15:38:27;12.40;99.90
45983;DHT22;31711;47.158;7.346;2024-03-02T15:40:53;12.20;99.90
45983;DHT22;31711;47.158;7.346;2024-03-02T15:43:19;11.90;99.90
45983;DHT22;31711;47.158;7.346;2024-03-02T15:45:44;11.90;99.90
45983;DHT22;31711;47.158;7.346;2024-03-02T15:48:11;11.90;99.90
45983;DHT22;31711;47.158;7.346;2024-03-02T15:50:36;11.90;99.90
45983;DHT22;31711;47.158;7.346;2024-03-02T15:53:03;11.80;99.90
45983;DHT22;31711;47.158;7.346;2024-03-02T15:55:32;11.80;99.90
45983;DHT22;31711;47.158;7.346;2024-03-02T15:58:01;11.80;99.90
45983;DHT22;31711;47.158;7.346;2024-03-02T16:00:29;11.60;99.90